WetterOnline ( https://www.wetteronline.de )

Wetter aktuell Korbach

Aktuelles Wetter: Kahler Asten (841m)

6-stündlich | Neueste Meldungen
Ortszeit Temperatur Wetter
So, 14.07. 20:00 15.6° C bedeckt
So, 14.07. 14:00 15.6° C bewölkt
So, 14.07. 8:00 12.0° C bewölkt
So, 14.07. 2:00 9.6° C wolkenlos
Sa, 13.07. 20:00 12.3° C wolkenlos
Sa, 13.07. 14:00 12.3° C bewölkt
Sa, 13.07. 8:00 8.1° C Sprühregen
Sa, 13.07. 2:00 8.4° C Nebel
Ortszeit Temperatur Wetter
Mo, 15.07. 0:30 13.9° C bedeckt
Mo, 15.07. 0:20 13.9° C bedeckt
Mo, 15.07. 0:10 13.9° C bedeckt
Mo, 15.07. 0:00 14.0° C bedeckt
So, 14.07. 23:50 14.0° C bedeckt
So, 14.07. 23:40 14.1° C bedeckt
So, 14.07. 23:30 14.2° C bedeckt
So, 14.07. 23:00 14.3° C bedeckt
So, 14.07. 22:30 14.4° C bedeckt
So, 14.07. 22:00 14.6° C bedeckt
So, 14.07. 21:30 14.8° C bedeckt
Ortszeit Relative Feuchte Sichtweite
So, 14.07. 20:00 66% >70 km
So, 14.07. 14:00 63% >70 km
So, 14.07. 8:00 76% >70 km
So, 14.07. 2:00 86% 60 km
Sa, 13.07. 20:00 72% 65 km
Sa, 13.07. 14:00 76% 60 km
Sa, 13.07. 8:00 100% 100 m
Sa, 13.07. 2:00 100% 100 m
Ortszeit Relative Feuchte Sichtweite
Mo, 15.07. 0:30 72% >70 km
Mo, 15.07. 0:20 72% -
Mo, 15.07. 0:10 71% -
Mo, 15.07. 0:00 70% >70 km
So, 14.07. 23:50 70% -
So, 14.07. 23:40 70% -
So, 14.07. 23:30 70% 65 km
So, 14.07. 23:00 70% >70 km
So, 14.07. 22:30 69% >70 km
So, 14.07. 22:00 68% >70 km
So, 14.07. 21:30 67% >70 km
Ortszeit Niederschlagsmenge Niederschlagsart
So, 14.07. 20:00 0.0 l/m2 in 12 Std. -
So, 14.07. 14:00 0.0 l/m2 in 6 Std. -
So, 14.07. 8:00 0.0 l/m2 in 12 Std. -
So, 14.07. 2:00 0.0 l/m2 in 6 Std. -
Sa, 13.07. 20:00 0.1 l/m2 in 12 Std. -
Sa, 13.07. 14:00 0.1 l/m2 in 6 Std. Regen
Sa, 13.07. 8:00 0.1 l/m2 in 12 Std. Regen
Sa, 13.07. 2:00 0.1 l/m2 in 6 Std. Regen
Ortszeit Niederschlagsmenge Niederschlagsart
Mo, 15.07. 0:30 0.0 l/m2 in 30 Min -
Mo, 15.07. 0:20 keine Meldung -
Mo, 15.07. 0:10 keine Meldung -
Mo, 15.07. 0:00 0.0 l/m2 in 1 Std. -
So, 14.07. 23:50 keine Meldung -
So, 14.07. 23:40 keine Meldung -
So, 14.07. 23:30 0.0 l/m2 in 30 Min -
So, 14.07. 23:00 0.0 l/m2 in 1 Std. -
So, 14.07. 22:30 0.0 l/m2 in 30 Min -
So, 14.07. 22:00 0.0 l/m2 in 1 Std. -
So, 14.07. 21:30 0.0 l/m2 in 30 Min -
Ortszeit Stärke Spitze Richtung
km/h Bft. km/h Grad Sektor
So, 14.07. 20:00 11 2 47 240° SW
So, 14.07. 14:00 20 4 39 230° SW
So, 14.07. 8:00 15 3 26 220° SW
So, 14.07. 2:00 18 3 25 240° SW
Sa, 13.07. 20:00 18 3 43 260° W
Sa, 13.07. 14:00 22 4 40 260° W
Sa, 13.07. 8:00 18 3 43 240° SW
Sa, 13.07. 2:00 22 4 50 260° W
Ortszeit Stärke Spitze Richtung
km/h Bft. km/h Grad Sektor
Mo, 15.07. 0:30 9 2 13 310° NW
Mo, 15.07. 0:20 9 2 - 310° NW
Mo, 15.07. 0:10 11 2 - 290° W
Mo, 15.07. 0:00 13 3 15 270° W
So, 14.07. 23:50 13 3 - 270° W
So, 14.07. 23:40 13 3 - 270° W
So, 14.07. 23:30 11 2 14 250° W
So, 14.07. 23:00 13 3 19 260° W
So, 14.07. 22:30 13 3 17 250° W
So, 14.07. 22:00 11 2 14 240° SW
So, 14.07. 21:30 11 2 14 230° SW
Ortszeit Untergrenze Bedeckung Gattung
total tief tief mittel hoch
So, 14.07. 20:00 4500 m 8/8 8/8 - - -
So, 14.07. 14:00 1080 m 7/8 7/8 - - -
So, 14.07. 8:00 750 m 7/8 7/8 - - -
So, 14.07. 2:00 - 0/8 0/8 - - -
Sa, 13.07. 20:00 - 0/8 0/8 - - -
Sa, 13.07. 14:00 570 m 7/8 7/8 - - -
Sa, 13.07. 8:00 <30 m 7/8 0/8 - - -
Sa, 13.07. 2:00 <30 m 8/8 0/8 - - -
Ortszeit Bedeckungsgrad in Achtel und Wolkenuntergrenze
Mo, 15.07. 0:30 8(3900m)
Mo, 15.07. 0:20 8(3900m)
Mo, 15.07. 0:10 8
Mo, 15.07. 0:00 8(4200m)
So, 14.07. 23:50 8(4200m)
So, 14.07. 23:40 8
So, 14.07. 23:30 8(3600m) 8(4500m)
So, 14.07. 23:00 8(3600m)
So, 14.07. 22:30 8(3600m)
So, 14.07. 22:00 7(3300m) 8(3900m)
So, 14.07. 21:30 8(4500m)
Ortszeit Stationsdruck (hPa) Tendenz (hPa in 3 Std.)
So, 14.07. 20:00 916 + 0,1
So, 14.07. 14:00 916 + 0,1
So, 14.07. 8:00 916 + 0,5
So, 14.07. 2:00 916 - 0,2
Sa, 13.07. 20:00 916 + 0,2
Sa, 13.07. 14:00 915 + 0,7
Sa, 13.07. 8:00 914 + 1,0
Sa, 13.07. 2:00 913 + 0,3
Ortszeit Stationsdruck (hPa) Tendenz (hPa in 3 Std.)
Mo, 15.07. 0:30 917 + 0,3
Mo, 15.07. 0:20 917 keine Meldung
Mo, 15.07. 0:10 917 keine Meldung
Mo, 15.07. 0:00 917 + 0,5
So, 14.07. 23:50 917 keine Meldung
So, 14.07. 23:40 917 keine Meldung
So, 14.07. 23:30 917 + 0,3
So, 14.07. 23:00 917 + 0,4
So, 14.07. 22:30 917 + 0,3
So, 14.07. 22:00 917 + 0,3
So, 14.07. 21:30 916 + 0,2
Ortszeit Schneehöhe (cm)
So, 14.07. 20:00 -
So, 14.07. 14:00 -
So, 14.07. 8:00 -
So, 14.07. 2:00 -
Sa, 13.07. 20:00 -
Sa, 13.07. 14:00 -
Sa, 13.07. 8:00 -
Sa, 13.07. 2:00 -
Ortszeit Schneehöhe (cm)
Mo, 15.07. 0:30 -
Mo, 15.07. 0:20 0
Mo, 15.07. 0:10 -
Mo, 15.07. 0:00 -
So, 14.07. 23:50 0
So, 14.07. 23:40 -
So, 14.07. 23:30 -
So, 14.07. 23:00 -
So, 14.07. 22:30 -
So, 14.07. 22:00 -
So, 14.07. 21:30 -
Link zu dieser Seite / Seite empfehlen

Das Wetter in ...